sensor_id;sensor_type;location;lat;lon;timestamp;pressure;altitude;pressure_sealevel;temperature;humidity
35806;BME280;21925;44.608;11.580;2024-03-02T00:00:51;100757.44;;;13.90;100.00
35806;BME280;21925;44.608;11.580;2024-03-02T00:03:18;100780.66;;;13.89;100.00
35806;BME280;21925;44.608;11.580;2024-03-02T00:05:51;100788.88;;;14.08;100.00
35806;BME280;21925;44.608;11.580;2024-03-02T00:08:24;100778.59;;;14.05;100.00
35806;BME280;21925;44.608;11.580;2024-03-02T00:10:51;100790.34;;;14.02;100.00
35806;BME280;21925;44.608;11.580;2024-03-02T00:13:20;100780.06;;;13.99;100.00
35806;BME280;21925;44.608;11.580;2024-03-02T00:15:51;100777.25;;;13.96;100.00
35806;BME280;21925;44.608;11.580;2024-03-02T00:18:33;100793.94;;;14.06;100.00
35806;BME280;21925;44.608;11.580;2024-03-02T00:21:00;100780.53;;;13.82;100.00
35806;BME280;21925;44.608;11.580;2024-03-02T00:23:30;100776.13;;;13.78;100.00
35806;BME280;21925;44.608;11.580;2024-03-02T00:25:56;100788.75;;;13.56;100.00
35806;BME280;21925;44.608;11.580;2024-03-02T00:28:33;100781.53;;;13.49;100.00
35806;BME280;21925;44.608;11.580;2024-03-02T00:31:07;100765.47;;;13.32;100.00
35806;BME280;21925;44.608;11.580;2024-03-02T00:33:34;100758.22;;;13.24;100.00
35806;BME280;21925;44.608;11.580;2024-03-02T00:36:05;100794.41;;;13.45;100.00
35806;BME280;21925;44.608;11.580;2024-03-02T00:38:32;100809.78;;;13.46;100.00
35806;BME280;21925;44.608;11.580;2024-03-02T00:41:07;100817.09;;;13.57;100.00
35806;BME280;21925;44.608;11.580;2024-03-02T00:43:41;100819.59;;;13.65;100.00
35806;BME280;21925;44.608;11.580;2024-03-02T00:46:08;100808.50;;;13.21;100.00
35806;BME280;21925;44.608;11.580;2024-03-02T00:48:34;100828.84;;;13.16;100.00
35806;BME280;21925;44.608;11.580;2024-03-02T00:51:03;100832.13;;;13.22;100.00
35806;BME280;21925;44.608;11.580;2024-03-02T00:53:30;100843.84;;;13.19;100.00
35806;BME280;21925;44.608;11.580;2024-03-02T00:55:58;100811.97;;;13.18;100.00
35806;BME280;21925;44.608;11.580;2024-03-02T00:58:25;100835.09;;;13.32;100.00
35806;BME280;21925;44.608;11.580;2024-03-02T01:00:50;100811.81;;;13.11;100.00
35806;BME280;21925;44.608;11.580;2024-03-02T01:03:16;100825.31;;;13.16;100.00
35806;BME280;21925;44.608;11.580;2024-03-02T01:05:42;100846.81;;;13.10;100.00
35806;BME280;21925;44.608;11.580;2024-03-02T01:08:11;100849.44;;;13.22;100.00
35806;BME280;21925;44.608;11.580;2024-03-02T01:10:37;100850.38;;;13.30;100.00
35806;BME280;21925;44.608;11.580;2024-03-02T01:13:03;100863.00;;;13.31;100.00
35806;BME280;21925;44.608;11.580;2024-03-02T01:15:28;100842.38;;;13.25;100.00
35806;BME280;21925;44.608;11.580;2024-03-02T01:17:54;100841.97;;;13.23;100.00
35806;BME280;21925;44.608;11.580;2024-03-02T01:20:20;100867.91;;;13.22;100.00
35806;BME280;21925;44.608;11.580;2024-03-02T01:22:45;100865.44;;;13.36;100.00
35806;BME280;21925;44.608;11.580;2024-03-02T01:25:12;100824.66;;;13.03;100.00
35806;BME280;21925;44.608;11.580;2024-03-02T01:27:38;100866.16;;;13.33;100.00
35806;BME280;21925;44.608;11.580;2024-03-02T01:30:05;100865.38;;;13.32;100.00
35806;BME280;21925;44.608;11.580;2024-03-02T01:32:31;100863.78;;;13.31;100.00
35806;BME280;21925;44.608;11.580;2024-03-02T01:34:56;100842.31;;;13.21;100.00
35806;BME280;21925;44.608;11.580;2024-03-02T01:37:22;100857.91;;;13.14;100.00
35806;BME280;21925;44.608;11.580;2024-03-02T01:39:47;100864.56;;;13.13;100.00
35806;BME280;21925;44.608;11.580;2024-03-02T01:42:15;100849.91;;;13.09;100.00
35806;BME280;21925;44.608;11.580;2024-03-02T01:44:41;100812.44;;;12.85;100.00
35806;BME280;21925;44.608;11.580;2024-03-02T01:47:06;100828.94;;;12.85;100.00
35806;BME280;21925;44.608;11.580;2024-03-02T01:49:32;100845.00;;;12.99;100.00
35806;BME280;21925;44.608;11.580;2024-03-02T01:51:59;100846.59;;;13.00;100.00
35806;BME280;21925;44.608;11.580;2024-03-02T01:54:25;100846.81;;;12.76;100.00
35806;BME280;21925;44.608;11.580;2024-03-02T01:56:50;100850.00;;;12.78;100.00
35806;BME280;21925;44.608;11.580;2024-03-02T01:59:16;100838.03;;;12.71;100.00
35806;BME280;21925;44.608;11.580;2024-03-02T02:01:42;100843.06;;;12.84;100.00
35806;BME280;21925;44.608;11.580;2024-03-02T02:04:08;100840.59;;;12.79;100.00
35806;BME280;21925;44.608;11.580;2024-03-02T02:06:34;100833.75;;;12.88;100.00
35806;BME280;21925;44.608;11.580;2024-03-02T02:09:01;100858.41;;;13.00;100.00
35806;BME280;21925;44.608;11.580;2024-03-02T02:11:27;100860.78;;;13.02;100.00
35806;BME280;21925;44.608;11.580;2024-03-02T02:13:53;100860.88;;;13.24;100.00
35806;BME280;21925;44.608;11.580;2024-03-02T02:16:21;100858.00;;;13.36;100.00
35806;BME280;21925;44.608;11.580;2024-03-02T02:18:46;100824.13;;;13.36;100.00
35806;BME280;21925;44.608;11.580;2024-03-02T02:21:12;100842.47;;;13.47;100.00
35806;BME280;21925;44.608;11.580;2024-03-02T02:23:38;100812.34;;;13.16;100.00
35806;BME280;21925;44.608;11.580;2024-03-02T02:26:03;100840.25;;;13.15;100.00
35806;BME280;21925;44.608;11.580;2024-03-02T02:28:30;100805.88;;;12.90;100.00
35806;BME280;21925;44.608;11.580;2024-03-02T02:30:55;100808.78;;;12.97;100.00
35806;BME280;21925;44.608;11.580;2024-03-02T02:33:25;100836.16;;;13.09;100.00
35806;BME280;21925;44.608;11.580;2024-03-02T02:35:51;100810.00;;;12.99;100.00
35806;BME280;21925;44.608;11.580;2024-03-02T02:38:17;100790.91;;;12.72;100.00
35806;BME280;21925;44.608;11.580;2024-03-02T02:40:42;100838.91;;;13.09;100.00
35806;BME280;21925;44.608;11.580;2024-03-02T02:43:08;100811.16;;;12.98;100.00
35806;BME280;21925;44.608;11.580;2024-03-02T02:45:33;100784.19;;;12.70;100.00
35806;BME280;21925;44.608;11.580;2024-03-02T02:47:59;100823.84;;;13.03;100.00
35806;BME280;21925;44.608;11.580;2024-03-02T02:50:27;100799.75;;;12.81;100.00
35806;BME280;21925;44.608;11.580;2024-03-02T02:52:52;100790.97;;;12.75;100.00
35806;BME280;21925;44.608;11.580;2024-03-02T02:55:18;100794.97;;;12.78;100.00
35806;BME280;21925;44.608;11.580;2024-03-02T02:57:44;100787.16;;;12.80;100.00
35806;BME280;21925;44.608;11.580;2024-03-02T03:00:14;100826.97;;;13.01;100.00
35806;BME280;21925;44.608;11.580;2024-03-02T03:02:46;100803.38;;;12.85;100.00
35806;BME280;21925;44.608;11.580;2024-03-02T03:05:14;100826.97;;;13.01;100.00
35806;BME280;21925;44.608;11.580;2024-03-02T03:07:41;100800.09;;;12.95;100.00
35806;BME280;21925;44.608;11.580;2024-03-02T03:10:07;100827.59;;;12.95;100.00
35806;BME280;21925;44.608;11.580;2024-03-02T03:12:34;100826.16;;;13.01;100.00
35806;BME280;21925;44.608;11.580;2024-03-02T03:15:00;100810.22;;;12.91;100.00
35806;BME280;21925;44.608;11.580;2024-03-02T03:17:26;100807.91;;;12.93;100.00
35806;BME280;21925;44.608;11.580;2024-03-02T03:19:53;100826.81;;;12.94;100.00
35806;BME280;21925;44.608;11.580;2024-03-02T03:22:18;100822.84;;;12.92;100.00
35806;BME280;21925;44.608;11.580;2024-03-02T03:24:45;100827.41;;;13.03;100.00
35806;BME280;21925;44.608;11.580;2024-03-02T03:27:10;100807.72;;;12.86;100.00
35806;BME280;21925;44.608;11.580;2024-03-02T03:29:39;100801.88;;;12.87;100.00
35806;BME280;21925;44.608;11.580;2024-03-02T03:32:05;100817.41;;;12.95;100.00
35806;BME280;21925;44.608;11.580;2024-03-02T03:34:35;100837.91;;;13.17;100.00
35806;BME280;21925;44.608;11.580;2024-03-02T03:37:01;100825.88;;;13.25;100.00
35806;BME280;21925;44.608;11.580;2024-03-02T03:39:27;100828.72;;;13.09;100.00
35806;BME280;21925;44.608;11.580;2024-03-02T03:41:53;100831.47;;;13.09;100.00
35806;BME280;21925;44.608;11.580;2024-03-02T03:44:18;100834.84;;;13.03;100.00
35806;BME280;21925;44.608;11.580;2024-03-02T03:46:44;100807.31;;;13.03;100.00
35806;BME280;21925;44.608;11.580;2024-03-02T03:49:10;100845.66;;;13.30;100.00
35806;BME280;21925;44.608;11.580;2024-03-02T03:51:35;100844.00;;;13.45;100.00
35806;BME280;21925;44.608;11.580;2024-03-02T03:54:01;100806.25;;;13.26;100.00
35806;BME280;21925;44.608;11.580;2024-03-02T03:56:27;100833.38;;;13.65;100.00
35806;BME280;21925;44.608;11.580;2024-03-02T03:58:52;100829.78;;;13.61;100.00
35806;BME280;21925;44.608;11.580;2024-03-02T04:01:18;100816.19;;;13.72;100.00
35806;BME280;21925;44.608;11.580;2024-03-02T04:03:44;100785.31;;;13.41;100.00
35806;BME280;21925;44.608;11.580;2024-03-02T04:06:10;100818.75;;;13.61;100.00
35806;BME280;21925;44.608;11.580;2024-03-02T04:08:35;100787.50;;;13.32;100.00
35806;BME280;21925;44.608;11.580;2024-03-02T04:11:01;100799.16;;;13.25;100.00
35806;BME280;21925;44.608;11.580;2024-03-02T04:13:28;100819.91;;;13.42;100.00
35806;BME280;21925;44.608;11.580;2024-03-02T04:15:53;100798.34;;;13.25;100.00
35806;BME280;21925;44.608;11.580;2024-03-02T04:18:19;100804.72;;;13.29;100.00
35806;BME280;21925;44.608;11.580;2024-03-02T04:20:44;100785.31;;;13.03;100.00
35806;BME280;21925;44.608;11.580;2024-03-02T04:23:10;100830.66;;;13.28;100.00
35806;BME280;21925;44.608;11.580;2024-03-02T04:25:36;100795.75;;;13.13;100.00
35806;BME280;21925;44.608;11.580;2024-03-02T04:28:01;100804.44;;;12.96;100.00
35806;BME280;21925;44.608;11.580;2024-03-02T04:30:27;100798.94;;;12.80;100.00
35806;BME280;21925;44.608;11.580;2024-03-02T04:32:53;100839.13;;;13.00;100.00
35806;BME280;21925;44.608;11.580;2024-03-02T04:35:19;100842.91;;;13.11;100.00
35806;BME280;21925;44.608;11.580;2024-03-02T04:37:44;100831.31;;;12.87;100.00
35806;BME280;21925;44.608;11.580;2024-03-02T04:40:10;100838.34;;;13.00;100.00
35806;BME280;21925;44.608;11.580;2024-03-02T04:42:36;100832.66;;;12.93;100.00
35806;BME280;21925;44.608;11.580;2024-03-02T04:45:02;100843.56;;;13.05;100.00
35806;BME280;21925;44.608;11.580;2024-03-02T04:47:28;100832.84;;;13.00;100.00
35806;BME280;21925;44.608;11.580;2024-03-02T04:49:54;100862.13;;;13.08;100.00
35806;BME280;21925;44.608;11.580;2024-03-02T04:52:21;100858.69;;;13.14;100.00
35806;BME280;21925;44.608;11.580;2024-03-02T04:54:46;100879.66;;;13.38;100.00
35806;BME280;21925;44.608;11.580;2024-03-02T04:57:32;100848.19;;;13.20;100.00
35806;BME280;21925;44.608;11.580;2024-03-02T04:59:58;100866.84;;;13.26;100.00
35806;BME280;21925;44.608;11.580;2024-03-02T05:02:23;100870.97;;;13.36;100.00
35806;BME280;21925;44.608;11.580;2024-03-02T05:04:49;100884.56;;;13.29;100.00
35806;BME280;21925;44.608;11.580;2024-03-02T05:07:15;100845.31;;;13.13;100.00
35806;BME280;21925;44.608;11.580;2024-03-02T05:09:40;100860.81;;;13.21;100.00
35806;BME280;21925;44.608;11.580;2024-03-02T05:12:06;100865.94;;;13.22;100.00
35806;BME280;21925;44.608;11.580;2024-03-02T05:15:01;100883.69;;;13.06;100.00
35806;BME280;21925;44.608;11.580;2024-03-02T05:17:27;100874.91;;;12.85;100.00
35806;BME280;21925;44.608;11.580;2024-03-02T05:19:52;100863.91;;;12.85;100.00
35806;BME280;21925;44.608;11.580;2024-03-02T05:22:18;100898.69;;;13.08;100.00
35806;BME280;21925;44.608;11.580;2024-03-02T05:24:44;100900.56;;;13.04;100.00
35806;BME280;21925;44.608;11.580;2024-03-02T05:27:09;100886.47;;;12.90;100.00
35806;BME280;21925;44.608;11.580;2024-03-02T05:29:35;100849.19;;;12.93;100.00
35806;BME280;21925;44.608;11.580;2024-03-02T05:32:00;100859.47;;;12.96;100.00
35806;BME280;21925;44.608;11.580;2024-03-02T05:34:26;100889.13;;;13.21;100.00
35806;BME280;21925;44.608;11.580;2024-03-02T05:36:52;100902.72;;;13.49;100.00
35806;BME280;21925;44.608;11.580;2024-03-02T05:39:17;100883.63;;;13.40;100.00
35806;BME280;21925;44.608;11.580;2024-03-02T05:41:43;100882.69;;;13.33;100.00
35806;BME280;21925;44.608;11.580;2024-03-02T05:44:08;100851.97;;;13.12;100.00
35806;BME280;21925;44.608;11.580;2024-03-02T05:46:34;100910.25;;;13.52;100.00
35806;BME280;21925;44.608;11.580;2024-03-02T05:49:00;100860.97;;;13.28;100.00
35806;BME280;21925;44.608;11.580;2024-03-02T05:51:26;100874.00;;;13.31;100.00
35806;BME280;21925;44.608;11.580;2024-03-02T05:53:52;100881.91;;;13.32;100.00
35806;BME280;21925;44.608;11.580;2024-03-02T05:56:17;100857.50;;;13.31;100.00
35806;BME280;21925;44.608;11.580;2024-03-02T05:58:43;100912.44;;;13.61;100.00
35806;BME280;21925;44.608;11.580;2024-03-02T06:01:45;100906.97;;;13.46;100.00
35806;BME280;21925;44.608;11.580;2024-03-02T06:04:17;100908.44;;;13.59;100.00
35806;BME280;21925;44.608;11.580;2024-03-02T06:06:43;100881.91;;;13.32;100.00
35806;BME280;21925;44.608;11.580;2024-03-02T06:09:09;100910.41;;;13.40;100.00
35806;BME280;21925;44.608;11.580;2024-03-02T06:11:39;100882.53;;;13.26;100.00
35806;BME280;21925;44.608;11.580;2024-03-02T06:14:06;100900.16;;;13.40;100.00
35806;BME280;21925;44.608;11.580;2024-03-02T06:16:32;100921.69;;;13.53;100.00
35806;BME280;21925;44.608;11.580;2024-03-02T06:18:59;100928.50;;;13.59;100.00
35806;BME280;21925;44.608;11.580;2024-03-02T06:21:25;100919.25;;;13.49;100.00
35806;BME280;21925;44.608;11.580;2024-03-02T06:23:50;100932.66;;;13.50;100.00
35806;BME280;21925;44.608;11.580;2024-03-02T06:26:16;100927.63;;;13.37;100.00
35806;BME280;21925;44.608;11.580;2024-03-02T06:28:42;100917.84;;;13.20;100.00
35806;BME280;21925;44.608;11.580;2024-03-02T06:31:08;100939.69;;;13.48;100.00
35806;BME280;21925;44.608;11.580;2024-03-02T06:33:34;100894.28;;;13.23;100.00
35806;BME280;21925;44.608;11.580;2024-03-02T06:36:00;100933.88;;;13.52;100.00
35806;BME280;21925;44.608;11.580;2024-03-02T06:38:25;100939.53;;;13.59;100.00
35806;BME280;21925;44.608;11.580;2024-03-02T06:40:51;100954.34;;;13.70;100.00
35806;BME280;21925;44.608;11.580;2024-03-02T06:43:17;100912.22;;;13.51;100.00
35806;BME280;21925;44.608;11.580;2024-03-02T06:45:42;100957.94;;;13.74;100.00
35806;BME280;21925;44.608;11.580;2024-03-02T06:48:08;100940.41;;;13.63;100.00
35806;BME280;21925;44.608;11.580;2024-03-02T06:50:34;100940.28;;;13.56;100.00
35806;BME280;21925;44.608;11.580;2024-03-02T06:53:00;100939.59;;;13.63;100.00
35806;BME280;21925;44.608;11.580;2024-03-02T06:55:25;100958.59;;;13.49;100.00
35806;BME280;21925;44.608;11.580;2024-03-02T06:57:51;100959.97;;;13.58;100.00
35806;BME280;21925;44.608;11.580;2024-03-02T07:00:18;100955.19;;;13.74;100.00
35806;BME280;21925;44.608;11.580;2024-03-02T07:02:46;100947.78;;;13.59;100.00
35806;BME280;21925;44.608;11.580;2024-03-02T07:05:11;100937.50;;;13.38;100.00
35806;BME280;21925;44.608;11.580;2024-03-02T07:07:37;100963.63;;;13.62;100.00
35806;BME280;21925;44.608;11.580;2024-03-02T07:10:04;100972.31;;;13.64;100.00
35806;BME280;21925;44.608;11.580;2024-03-02T07:12:30;100957.50;;;13.53;100.00
35806;BME280;21925;44.608;11.580;2024-03-02T07:14:56;100948.25;;;13.61;100.00
35806;BME280;21925;44.608;11.580;2024-03-02T07:17:37;100970.44;;;13.87;100.00
35806;BME280;21925;44.608;11.580;2024-03-02T07:20:02;100988.41;;;13.81;100.00
35806;BME280;21925;44.608;11.580;2024-03-02T07:22:29;100946.19;;;13.58;100.00
35806;BME280;21925;44.608;11.580;2024-03-02T07:24:55;100927.56;;;13.33;100.00
35806;BME280;21925;44.608;11.580;2024-03-02T07:27:21;100940.09;;;13.50;100.00
35806;BME280;21925;44.608;11.580;2024-03-02T07:29:46;100985.06;;;13.91;100.00
35806;BME280;21925;44.608;11.580;2024-03-02T07:32:12;100975.94;;;13.87;100.00
35806;BME280;21925;44.608;11.580;2024-03-02T07:34:38;100999.50;;;14.04;100.00
35806;BME280;21925;44.608;11.580;2024-03-02T07:37:03;100976.00;;;13.91;100.00
35806;BME280;21925;44.608;11.580;2024-03-02T07:39:29;100962.75;;;13.96;100.00
35806;BME280;21925;44.608;11.580;2024-03-02T07:41:55;100998.00;;;14.25;100.00
35806;BME280;21925;44.608;11.580;2024-03-02T07:44:21;100979.56;;;14.10;100.00
35806;BME280;21925;44.608;11.580;2024-03-02T07:47:10;100957.44;;;13.88;100.00
35806;BME280;21925;44.608;11.580;2024-03-02T07:49:57;101006.84;;;14.34;100.00
35806;BME280;21925;44.608;11.580;2024-03-02T07:52:50;100965.69;;;14.26;100.00
35806;BME280;21925;44.608;11.580;2024-03-02T07:55:21;100970.91;;;14.31;100.00
35806;BME280;21925;44.608;11.580;2024-03-02T07:57:49;100989.69;;;14.44;100.00
35806;BME280;21925;44.608;11.580;2024-03-02T08:00:15;101011.28;;;14.61;100.00
35806;BME280;21925;44.608;11.580;2024-03-02T08:02:41;100980.78;;;14.76;100.00
35806;BME280;21925;44.608;11.580;2024-03-02T08:05:08;101005.56;;;14.95;100.00
35806;BME280;21925;44.608;11.580;2024-03-02T08:07:34;101020.16;;;14.96;100.00
35806;BME280;21925;44.608;11.580;2024-03-02T08:09:59;100963.13;;;14.58;100.00
35806;BME280;21925;44.608;11.580;2024-03-02T08:12:25;101020.09;;;15.14;100.00
35806;BME280;21925;44.608;11.580;2024-03-02T08:14:51;100991.38;;;14.97;100.00
35806;BME280;21925;44.608;11.580;2024-03-02T08:17:16;100999.78;;;15.04;100.00
35806;BME280;21925;44.608;11.580;2024-03-02T08:19:43;101022.91;;;15.18;100.00
35806;BME280;21925;44.608;11.580;2024-03-02T08:22:09;101031.69;;;15.01;100.00
35806;BME280;21925;44.608;11.580;2024-03-02T08:24:35;101018.81;;;15.09;100.00
35806;BME280;21925;44.608;11.580;2024-03-02T08:27:01;100996.56;;;14.76;100.00
35806;BME280;21925;44.608;11.580;2024-03-02T08:29:26;101010.53;;;14.86;100.00
35806;BME280;21925;44.608;11.580;2024-03-02T08:31:53;101033.72;;;14.82;100.00
35806;BME280;21925;44.608;11.580;2024-03-02T08:34:22;101047.47;;;15.01;100.00
35806;BME280;21925;44.608;11.580;2024-03-02T08:36:47;101027.59;;;14.92;100.00
35806;BME280;21925;44.608;11.580;2024-03-02T08:39:13;101046.59;;;14.97;100.00
35806;BME280;21925;44.608;11.580;2024-03-02T08:41:44;101023.03;;;15.03;100.00
35806;BME280;21925;44.608;11.580;2024-03-02T08:44:10;101033.16;;;15.17;100.00
35806;BME280;21925;44.608;11.580;2024-03-02T08:46:36;101049.25;;;15.12;100.00
35806;BME280;21925;44.608;11.580;2024-03-02T08:49:03;101049.31;;;15.15;100.00
35806;BME280;21925;44.608;11.580;2024-03-02T08:51:28;101016.06;;;15.09;100.00
35806;BME280;21925;44.608;11.580;2024-03-02T08:53:54;101027.50;;;15.11;100.00
35806;BME280;21925;44.608;11.580;2024-03-02T08:56:19;101008.81;;;15.01;100.00
35806;BME280;21925;44.608;11.580;2024-03-02T08:58:47;101016.09;;;15.12;100.00
35806;BME280;21925;44.608;11.580;2024-03-02T09:01:12;101011.47;;;15.19;100.00
35806;BME280;21925;44.608;11.580;2024-03-02T09:03:38;101012.19;;;15.13;100.00
35806;BME280;21925;44.608;11.580;2024-03-02T09:06:04;101043.72;;;15.34;100.00
35806;BME280;21925;44.608;11.580;2024-03-02T09:08:29;101001.25;;;14.98;100.00
35806;BME280;21925;44.608;11.580;2024-03-02T09:10:56;101054.41;;;15.13;100.00
35806;BME280;21925;44.608;11.580;2024-03-02T09:13:21;101061.09;;;15.35;100.00
35806;BME280;21925;44.608;11.580;2024-03-02T09:15:47;101058.91;;;15.73;100.00
35806;BME280;21925;44.608;11.580;2024-03-02T09:18:13;101052.09;;;15.67;100.00
35806;BME280;21925;44.608;11.580;2024-03-02T09:20:39;101038.66;;;15.40;100.00
35806;BME280;21925;44.608;11.580;2024-03-02T09:23:04;101049.09;;;15.50;100.00
35806;BME280;21925;44.608;11.580;2024-03-02T09:25:30;101046.81;;;15.55;100.00
35806;BME280;21925;44.608;11.580;2024-03-02T09:27:56;101040.25;;;15.41;100.00
35806;BME280;21925;44.608;11.580;2024-03-02T09:30:22;101045.31;;;15.35;100.00
35806;BME280;21925;44.608;11.580;2024-03-02T09:32:48;101051.91;;;15.53;100.00
35806;BME280;21925;44.608;11.580;2024-03-02T09:35:13;101056.41;;;15.65;100.00
35806;BME280;21925;44.608;11.580;2024-03-02T09:37:39;101047.13;;;15.50;100.00
35806;BME280;21925;44.608;11.580;2024-03-02T09:40:06;101045.84;;;15.44;100.00
35806;BME280;21925;44.608;11.580;2024-03-02T09:42:31;101036.38;;;15.71;100.00
35806;BME280;21925;44.608;11.580;2024-03-02T09:44:58;101045.63;;;15.82;100.00
35806;BME280;21925;44.608;11.580;2024-03-02T09:47:24;101066.22;;;15.88;100.00
35806;BME280;21925;44.608;11.580;2024-03-02T09:49:49;101063.06;;;15.60;100.00
35806;BME280;21925;44.608;11.580;2024-03-02T09:52:16;101049.66;;;15.62;100.00
35806;BME280;21925;44.608;11.580;2024-03-02T09:54:41;101054.56;;;16.01;100.00
35806;BME280;21925;44.608;11.580;2024-03-02T09:57:07;101067.78;;;15.86;100.00
35806;BME280;21925;44.608;11.580;2024-03-02T09:59:33;101062.38;;;15.96;100.00
35806;BME280;21925;44.608;11.580;2024-03-02T10:02:02;101081.75;;;15.96;100.00
35806;BME280;21925;44.608;11.580;2024-03-02T10:04:29;101054.22;;;15.77;100.00
35806;BME280;21925;44.608;11.580;2024-03-02T10:07:13;101074.28;;;16.00;100.00
35806;BME280;21925;44.608;11.580;2024-03-02T10:09:40;101074.44;;;15.81;100.00
35806;BME280;21925;44.608;11.580;2024-03-02T10:12:07;101077.94;;;15.78;100.00
35806;BME280;21925;44.608;11.580;2024-03-02T10:14:34;101077.03;;;16.00;100.00
35806;BME280;21925;44.608;11.580;2024-03-02T10:17:04;101062.25;;;16.15;100.00
35806;BME280;21925;44.608;11.580;2024-03-02T10:19:31;101081.91;;;16.36;100.00
35806;BME280;21925;44.608;11.580;2024-03-02T10:21:59;101069.09;;;16.57;100.00
35806;BME280;21925;44.608;11.580;2024-03-02T10:24:25;101084.34;;;16.80;100.00
35806;BME280;21925;44.608;11.580;2024-03-02T10:26:51;101080.50;;;16.52;100.00
35806;BME280;21925;44.608;11.580;2024-03-02T10:29:18;101065.63;;;16.64;100.00
35806;BME280;21925;44.608;11.580;2024-03-02T10:31:44;101065.41;;;16.46;100.00
35806;BME280;21925;44.608;11.580;2024-03-02T10:34:14;101064.72;;;16.56;100.00
35806;BME280;21925;44.608;11.580;2024-03-02T10:36:42;101078.91;;;16.87;100.00
35806;BME280;21925;44.608;11.580;2024-03-02T10:39:09;101075.56;;;17.11;100.00
35806;BME280;21925;44.608;11.580;2024-03-02T10:41:36;101073.03;;;16.92;100.00
35806;BME280;21925;44.608;11.580;2024-03-02T10:44:03;101081.41;;;16.99;100.00
35806;BME280;21925;44.608;11.580;2024-03-02T10:46:31;101079.00;;;16.98;100.00
35806;BME280;21925;44.608;11.580;2024-03-02T10:48:58;101061.16;;;16.92;100.00
35806;BME280;21925;44.608;11.580;2024-03-02T10:51:28;101030.50;;;16.75;100.00
35806;BME280;21925;44.608;11.580;2024-03-02T10:53:58;101069.78;;;16.87;100.00
35806;BME280;21925;44.608;11.580;2024-03-02T10:59:28;101058.63;;;16.77;100.00
35806;BME280;21925;44.608;11.580;2024-03-02T11:02:01;101065.00;;;16.84;100.00
35806;BME280;21925;44.608;11.580;2024-03-02T11:04:28;101065.97;;;17.02;100.00
35806;BME280;21925;44.608;11.580;2024-03-02T11:07:06;101062.06;;;16.67;100.00
35806;BME280;21925;44.608;11.580;2024-03-02T11:09:38;101058.97;;;16.72;100.00
35806;BME280;21925;44.608;11.580;2024-03-02T11:12:19;101046.13;;;16.24;100.00
35806;BME280;21925;44.608;11.580;2024-03-02T11:14:48;101056.69;;;16.44;100.00
35806;BME280;21925;44.608;11.580;2024-03-02T11:17:17;101063.03;;;16.45;100.00
35806;BME280;21925;44.608;11.580;2024-03-02T11:19:44;101066.38;;;16.61;100.00
35806;BME280;21925;44.608;11.580;2024-03-02T11:22:12;101050.50;;;16.58;100.00
35806;BME280;21925;44.608;11.580;2024-03-02T11:24:38;101055.03;;;16.40;100.00
35806;BME280;21925;44.608;11.580;2024-03-02T11:27:07;101046.66;;;16.33;100.00
35806;BME280;21925;44.608;11.580;2024-03-02T11:34:41;101049.63;;;16.47;100.00
35806;BME280;21925;44.608;11.580;2024-03-02T11:37:11;101039.28;;;16.44;100.00
35806;BME280;21925;44.608;11.580;2024-03-02T11:39:38;101036.47;;;16.40;100.00
35806;BME280;21925;44.608;11.580;2024-03-02T11:42:07;101034.56;;;16.48;100.00
35806;BME280;21925;44.608;11.580;2024-03-02T11:44:35;101033.81;;;16.51;100.00
35806;BME280;21925;44.608;11.580;2024-03-02T11:47:02;101020.94;;;16.29;100.00
35806;BME280;21925;44.608;11.580;2024-03-02T11:49:49;101009.81;;;16.25;100.00
35806;BME280;21925;44.608;11.580;2024-03-02T11:52:17;101032.16;;;16.43;100.00
35806;BME280;21925;44.608;11.580;2024-03-02T11:54:45;100998.63;;;16.15;100.00
35806;BME280;21925;44.608;11.580;2024-03-02T11:57:15;101025.38;;;16.37;100.00
35806;BME280;21925;44.608;11.580;2024-03-02T11:59:42;101036.66;;;16.58;100.00
35806;BME280;21925;44.608;11.580;2024-03-02T12:02:16;101018.19;;;16.69;100.00
35806;BME280;21925;44.608;11.580;2024-03-02T12:04:43;101027.69;;;16.68;100.00
35806;BME280;21925;44.608;11.580;2024-03-02T12:07:09;101029.25;;;16.69;100.00
35806;BME280;21925;44.608;11.580;2024-03-02T12:09:35;100995.56;;;16.60;100.00
35806;BME280;21925;44.608;11.580;2024-03-02T12:12:08;101029.84;;;17.31;100.00
35806;BME280;21925;44.608;11.580;2024-03-02T12:14:38;101031.31;;;17.79;100.00
35806;BME280;21925;44.608;11.580;2024-03-02T12:17:06;101015.25;;;18.16;100.00
35806;BME280;21925;44.608;11.580;2024-03-02T12:19:33;101017.38;;;18.60;100.00
35806;BME280;21925;44.608;11.580;2024-03-02T12:22:00;101011.47;;;18.72;100.00
35806;BME280;21925;44.608;11.580;2024-03-02T12:24:29;100999.94;;;18.77;100.00
35806;BME280;21925;44.608;11.580;2024-03-02T12:26:55;100997.06;;;18.22;100.00
35806;BME280;21925;44.608;11.580;2024-03-02T12:29:22;100975.97;;;18.03;100.00
35806;BME280;21925;44.608;11.580;2024-03-02T12:31:52;100982.19;;;17.76;100.00
35806;BME280;21925;44.608;11.580;2024-03-02T12:34:18;100978.75;;;18.03;100.00
35806;BME280;21925;44.608;11.580;2024-03-02T12:36:45;100976.38;;;18.09;100.00
35806;BME280;21925;44.608;11.580;2024-03-02T12:39:13;100961.25;;;17.96;100.00